Time;durP1;ratioP1;P1;durP2;ratioP2;P2;SDS_P1;SDS_P2;PMS_P1;PMS_P2;Temp;Humidity;BMP_temperature;BMP_pressure;BME280_temperature;BME280_humidity;BME280_pressure;Samples;Min_cycle;Max_cycle;Signal;HPM_P1;HPM_P2
2024/01/20 00:02:18;;;;;;;40.60;19.55;;;;;;;0.52;89.43;102373.81;3610795;39;20035;-69
2024/01/20 00:04:44;;;;;;;37.47;18.10;;;;;;;0.78;88.13;102420.66;3611223;39;20047;-67
2024/01/20 00:07:09;;;;;;;36.67;18.80;;;;;;;0.73;89.34;102411.81;3609579;39;20043;-67
2024/01/20 00:09:35;;;;;;;39.47;18.25;;;;;;;0.74;89.01;102425.06;3610869;39;20046;-67
2024/01/20 00:12:00;;;;;;;37.15;17.90;;;;;;;0.73;88.84;102419.75;3612687;39;20047;-69
2024/01/20 00:14:26;;;;;;;40.92;18.23;;;;;;;0.77;89.00;102416.25;3612158;39;20059;-68
2024/01/20 00:16:52;;;;;;;39.97;18.55;;;;;;;0.74;88.86;102411.84;3609717;39;20054;-67
2024/01/20 00:19:17;;;;;;;37.03;17.10;;;;;;;0.78;88.90;102415.38;3608514;39;20335;-67
2024/01/20 00:21:43;;;;;;;37.17;17.98;;;;;;;0.76;89.14;102415.38;3611702;39;20055;-67
2024/01/20 00:24:08;;;;;;;33.55;16.42;;;;;;;0.45;89.41;102357.03;3611700;39;20061;-67
2024/01/20 00:26:34;;;;;;;36.55;16.83;;;;;;;0.84;87.63;102431.28;3610324;39;20051;-67
2024/01/20 00:29:00;;;;;;;34.85;16.63;;;;;;;0.79;89.45;102422.41;3612479;39;20588;-68
2024/01/20 00:31:25;;;;;;;36.03;17.63;;;;;;;0.63;88.94;102397.66;3609012;39;20058;-67
2024/01/20 00:33:51;;;;;;;34.97;17.02;;;;;;;0.76;89.73;102419.75;3611510;39;21531;-68
2024/01/20 00:36:17;;;;;;;37.33;17.50;;;;;;;0.63;89.46;102406.47;3609312;39;20098;-67
2024/01/20 00:38:43;;;;;;;38.15;17.55;;;;;;;0.72;88.96;102415.34;3609385;39;20308;-67
2024/01/20 00:41:10;;;;;;;35.72;16.10;;;;;;;0.73;88.87;102418.00;3610133;39;20054;-68
2024/01/20 00:43:36;;;;;;;37.97;17.23;;;;;;;0.75;89.22;102410.94;3611159;39;20046;-67
2024/01/20 00:46:02;;;;;;;31.88;16.58;;;;;;;0.81;88.99;102415.38;3608970;39;20066;-67
2024/01/20 00:48:28;;;;;;;34.85;16.48;;;;;;;0.71;89.14;102409.16;3611080;39;20086;-67
2024/01/20 00:50:53;;;;;;;36.88;17.15;;;;;;;0.57;89.07;102389.69;3609944;39;20111;-68
2024/01/20 00:53:19;;;;;;;36.78;17.40;;;;;;;0.76;89.53;102417.13;3610791;39;20043;-67
2024/01/20 00:55:45;;;;;;;36.85;17.48;;;;;;;0.53;88.44;102377.31;3609279;39;20055;-68
2024/01/20 00:58:11;;;;;;;39.03;17.85;;;;;;;0.22;88.13;102330.47;3612400;39;20426;-67
2024/01/20 01:00:37;;;;;;;32.13;16.33;;;;;;;0.69;89.48;102417.09;3607610;39;20054;-67
2024/01/20 01:03:04;;;;;;;34.35;17.05;;;;;;;0.61;87.98;102395.00;3611223;39;20055;-67
2024/01/20 01:05:29;;;;;;;36.60;17.08;;;;;;;0.71;88.85;102418.88;3610369;39;20104;-67
2024/01/20 01:07:56;;;;;;;31.50;16.30;;;;;;;0.73;89.33;102415.38;3609712;39;20383;-67
2024/01/20 01:10:22;;;;;;;38.00;18.10;;;;;;;0.65;88.84;102410.03;3611578;39;20347;-67
2024/01/20 01:12:49;;;;;;;35.30;16.40;;;;;;;0.63;88.61;102403.81;3609747;39;20043;-67
2024/01/20 01:15:15;;;;;;;36.33;18.25;;;;;;;0.65;88.94;102403.84;3609620;39;20047;-67
2024/01/20 01:17:40;;;;;;;37.20;16.75;;;;;;;0.68;89.64;102415.31;3611072;39;20058;-67
2024/01/20 01:20:11;;;;;;;42.05;17.45;;;;;;;0.68;88.02;102415.31;3612087;39;20302;-67
2024/01/20 01:22:36;;;;;;;36.22;16.60;;;;;;;0.75;88.40;102410.06;3610601;39;20047;-67
2024/01/20 01:25:03;;;;;;;35.50;17.05;;;;;;;0.77;88.19;102413.63;3610615;39;20051;-67
2024/01/20 01:27:29;;;;;;;30.73;15.65;;;;;;;0.78;88.14;102410.06;3610210;39;20082;-67
2024/01/20 01:29:54;;;;;;;32.88;16.42;;;;;;;0.58;89.19;102389.72;3610944;39;20078;-67
2024/01/20 01:32:20;;;;;;;37.80;17.42;;;;;;;0.73;88.06;102414.44;3610812;39;20425;-67
2024/01/20 01:34:45;;;;;;;33.28;16.35;;;;;;;0.66;88.93;102413.53;3609718;39;20097;-67
2024/01/20 01:37:11;;;;;;;33.50;16.48;;;;;;;0.69;nan;102427.66;3613086;39;20047;-67
2024/01/20 01:39:37;;;;;;;29.85;14.50;;;;;;;0.65;88.06;102417.06;3611104;39;20276;-67
2024/01/20 01:42:02;;;;;;;33.10;15.98;;;;;;;0.69;88.45;102432.09;3611007;39;20148;-67
2024/01/20 01:44:28;;;;;;;28.00;14.63;;;;;;;0.61;89.11;102432.06;3610296;39;20059;-67
2024/01/20 01:46:54;;;;;;;32.85;15.75;;;;;;;0.46;88.48;102406.41;3611666;39;20066;-68
2024/01/20 01:49:22;;;;;;;31.02;15.25;;;;;;;0.49;89.13;102421.41;3611966;39;20110;-67
2024/01/20 01:51:50;;;;;;;33.72;15.20;;;;;;;0.56;89.30;102431.13;3611713;39;20117;-67
2024/01/20 01:54:19;;;;;;;32.70;15.43;;;;;;;0.57;88.81;102432.94;3610554;39;20086;-67
2024/01/20 01:56:50;;;;;;;29.10;14.98;;;;;;;0.68;89.44;102446.22;3612094;39;20391;-67
2024/01/20 01:59:16;;;;;;;33.72;16.10;;;;;;;0.71;88.84;102453.28;3610338;39;20077;-67
2024/01/20 02:01:42;;;;;;;34.78;16.70;;;;;;;0.64;89.61;102450.59;3612321;39;20399;-67
2024/01/20 02:04:07;;;;;;;31.77;16.65;;;;;;;0.64;88.75;102450.59;3613410;39;20404;-68
2024/01/20 02:06:34;;;;;;;29.38;15.02;;;;;;;0.76;87.88;102459.47;3611173;39;20042;-67
2024/01/20 02:08:59;;;;;;;30.60;16.05;;;;;;;0.66;88.68;102464.69;3608911;39;20058;-68
2024/01/20 02:11:27;;;;;;;37.05;17.05;;;;;;;0.64;89.48;102455.00;3611249;39;20099;-67
2024/01/20 02:13:54;;;;;;;33.25;15.48;;;;;;;0.66;89.40;102453.25;3609769;39;20051;-68
2024/01/20 02:16:20;;;;;;;36.25;16.98;;;;;;;0.69;89.22;102454.13;3610807;39;20047;-67
2024/01/20 02:18:45;;;;;;;32.13;15.70;;;;;;;0.66;88.47;102464.69;3607798;39;20066;-67
2024/01/20 02:21:11;;;;;;;35.08;16.75;;;;;;;0.45;88.94;102427.56;3602535;39;21820;-67
2024/01/20 02:23:46;;;;;;;33.08;15.85;;;;;;;0.62;88.96;102464.69;3612503;39;20051;-67
2024/01/20 02:26:11;;;;;;;30.55;15.23;;;;;;;0.59;88.73;102449.69;3611442;39;20055;-67
2024/01/20 02:28:37;;;;;;;33.75;16.42;;;;;;;0.63;88.98;102464.69;3611054;39;20053;-67
2024/01/20 02:31:03;;;;;;;32.38;16.00;;;;;;;0.60;89.58;102459.41;3600891;39;20343;-69
2024/01/20 02:33:29;;;;;;;34.53;16.63;;;;;;;0.66;89.08;102463.81;3610532;39;20086;-67
2024/01/20 02:35:54;;;;;;;36.45;16.23;;;;;;;0.68;89.52;102476.19;3609779;39;20051;-68
2024/01/20 02:38:20;;;;;;;33.70;16.80;;;;;;;0.73;88.44;102470.03;3611889;39;20121;-67
2024/01/20 02:40:45;;;;;;;31.30;16.38;;;;;;;0.69;88.37;102467.38;3611198;39;20048;-67
2024/01/20 02:43:11;;;;;;;32.90;16.45;;;;;;;0.69;88.28;102469.13;3611513;39;20081;-68
2024/01/20 02:45:37;;;;;;;29.45;16.00;;;;;;;0.65;88.90;102472.66;3610803;39;20063;-68
2024/01/20 02:48:02;;;;;;;31.50;15.75;;;;;;;0.65;89.79;102459.41;3610417;39;20066;-67
2024/01/20 02:50:28;;;;;;;33.50;16.83;;;;;;;0.64;89.11;102471.78;3601444;39;20070;-67
2024/01/20 02:52:54;;;;;;;30.48;17.10;;;;;;;0.53;88.86;102446.13;3600612;39;20046;-68
2024/01/20 02:55:19;;;;;;;32.17;16.83;;;;;;;0.62;90.03;102462.94;3610903;39;20063;-67
2024/01/20 02:57:45;;;;;;;32.78;15.65;;;;;;;0.67;89.93;102466.50;3611043;39;20395;-67
2024/01/20 03:00:12;;;;;;;32.60;16.10;;;;;;;0.64;88.79;102466.47;3610967;39;20055;-67
2024/01/20 03:02:37;;;;;;;32.88;17.17;;;;;;;0.60;89.71;102446.19;3611457;39;20084;-67
2024/01/20 03:05:03;;;;;;;35.33;17.30;;;;;;;0.36;89.41;102417.81;3610098;39;20400;-67
2024/01/20 03:07:29;;;;;;;30.67;14.68;;;;;;;0.70;89.48;102473.56;3608083;39;20058;-67
2024/01/20 03:09:55;;;;;;;31.83;16.48;;;;;;;0.72;88.91;102476.22;3609055;39;20050;-68
2024/01/20 03:12:20;;;;;;;33.65;16.50;;;;;;;0.69;89.30;102482.38;3611774;39;20379;-68
2024/01/20 03:14:46;;;;;;;29.23;16.27;;;;;;;0.68;88.22;102477.97;3609451;39;20061;-68
2024/01/20 03:17:11;;;;;;;31.77;15.07;;;;;;;0.72;89.19;102486.78;3608474;39;20058;-68
2024/01/20 03:19:37;;;;;;;30.95;16.83;;;;;;;0.71;88.13;102488.56;3610377;39;20066;-68
2024/01/20 03:22:03;;;;;;;33.13;15.73;;;;;;;0.73;89.01;102486.81;3606971;39;20059;-68
2024/01/20 03:24:28;;;;;;;31.45;15.30;;;;;;;0.76;87.74;102496.50;3608825;39;20067;-68
2024/01/20 03:26:55;;;;;;;29.98;14.70;;;;;;;0.76;88.81;102492.13;3610240;39;20287;-68
2024/01/20 03:29:22;;;;;;;28.75;15.88;;;;;;;0.77;87.36;102493.00;3610425;39;20050;-68
2024/01/20 03:31:47;;;;;;;32.15;15.55;;;;;;;0.61;89.29;102471.75;3608339;39;20069;-68
2024/01/20 03:34:13;;;;;;;29.33;15.90;;;;;;;0.59;88.22;102464.66;3610597;39;20309;-68
2024/01/20 03:36:38;;;;;;;30.50;15.93;;;;;;;0.68;87.97;102480.59;3611078;39;20102;-68
2024/01/20 03:39:04;;;;;;;31.58;18.08;;;;;;;0.74;88.55;102491.22;3609490;39;20058;-68
2024/01/20 03:41:30;;;;;;;27.88;15.05;;;;;;;0.74;87.79;102493.88;3610292;39;20066;-69
2024/01/20 03:43:56;;;;;;;29.35;14.80;;;;;;;0.72;88.17;102486.78;3609278;39;20383;-68
2024/01/20 03:46:23;;;;;;;28.80;14.27;;;;;;;0.74;87.78;102493.88;3611516;39;20299;-68
2024/01/20 03:48:49;;;;;;;29.02;14.68;;;;;;;0.77;88.83;102498.31;3609772;39;20109;-68
2024/01/20 03:51:14;;;;;;;32.08;15.43;;;;;;;0.72;88.63;102495.63;3609703;39;20075;-67
2024/01/20 03:53:40;;;;;;;30.17;15.85;;;;;;;0.73;89.10;102485.91;3612158;39;20116;-67
2024/01/20 03:56:06;;;;;;;31.98;16.13;;;;;;;0.70;88.72;102481.50;3609711;39;20046;-68
2024/01/20 03:58:31;;;;;;;29.73;14.43;;;;;;;0.71;87.95;102487.69;3609754;39;20092;-68
2024/01/20 04:00:57;;;;;;;28.25;14.82;;;;;;;0.71;88.38;102487.69;3608388;39;20121;-68
2024/01/20 04:03:22;;;;;;;27.85;15.38;;;;;;;0.69;87.88;102487.66;3606589;39;20055;-68
2024/01/20 04:05:48;;;;;;;30.10;15.00;;;;;;;0.64;89.32;102495.59;3606538;39;20055;-68
2024/01/20 04:08:14;;;;;;;31.23;15.60;;;;;;;0.67;89.32;102500.91;3608618;39;20046;-68
2024/01/20 04:10:40;;;;;;;32.47;15.05;;;;;;;0.62;89.19;102485.88;3608025;39;20065;-68
2024/01/20 04:13:06;;;;;;;32.03;16.60;;;;;;;0.47;88.47;102457.53;3608450;39;20057;-68
2024/01/20 04:15:31;;;;;;;29.02;15.60;;;;;;;0.65;88.54;102483.22;3608694;39;20063;-68
2024/01/20 04:17:57;;;;;;;26.70;14.88;;;;;;;0.60;88.49;102470.00;3609986;39;20055;-67
2024/01/20 04:20:23;;;;;;;28.45;14.65;;;;;;;0.62;88.13;102489.38;3608055;39;20392;-67
2024/01/20 04:22:49;;;;;;;30.27;14.45;;;;;;;0.64;88.91;102490.28;3608576;39;20058;-68
2024/01/20 04:25:14;;;;;;;30.92;15.38;;;;;;;0.68;88.23;102497.38;3606424;39;20062;-67
2024/01/20 04:27:40;;;;;;;30.10;15.88;;;;;;;0.65;88.18;102505.28;3610909;39;20047;-67
2024/01/20 04:30:11;;;;;;;31.23;15.70;;;;;;;0.64;89.25;102503.53;3610312;39;20062;-67
2024/01/20 04:32:37;;;;;;;31.17;15.05;;;;;;;0.57;88.28;102499.06;3610695;39;20391;-67
2024/01/20 04:35:05;;;;;;;28.15;13.90;;;;;;;0.69;88.78;102501.78;3609854;39;20063;-68
2024/01/20 04:37:31;;;;;;;28.00;14.38;;;;;;;0.66;89.21;102512.34;3606638;39;20306;-68
2024/01/20 04:39:56;;;;;;;29.58;14.88;;;;;;;0.61;89.43;102519.38;3606125;39;20048;-68
2024/01/20 04:42:23;;;;;;;24.10;13.55;;;;;;;0.74;87.59;102519.47;3609224;39;20302;-67
2024/01/20 04:44:48;;;;;;;28.58;14.32;;;;;;;0.65;89.31;102513.22;3611792;39;20070;-69
2024/01/20 04:47:14;;;;;;;27.90;14.57;;;;;;;0.76;88.29;102521.25;3612468;39;20890;-68
2024/01/20 04:49:39;;;;;;;29.50;14.48;;;;;;;0.47;88.71;102479.59;3613509;39;20051;-68
2024/01/20 04:52:05;;;;;;;26.33;14.85;;;;;;;0.41;88.88;102484.88;3612362;39;20418;-67
2024/01/20 04:54:31;;;;;;;26.30;14.55;;;;;;;0.73;88.17;102522.97;3613752;39;20054;-68
2024/01/20 04:56:57;;;;;;;30.52;15.27;;;;;;;0.65;88.51;102526.47;3613442;39;20058;-67
2024/01/20 04:59:24;;;;;;;29.00;14.55;;;;;;;0.71;89.30;102522.97;3612226;39;20095;-67
2024/01/20 05:01:50;;;;;;;28.23;15.02;;;;;;;0.62;88.58;102518.50;3611517;39;20055;-68
2024/01/20 05:04:16;;;;;;;27.45;14.98;;;;;;;0.57;88.11;102492.88;3613097;39;20057;-68
2024/01/20 05:06:45;;;;;;;29.25;14.95;;;;;;;0.70;88.05;102523.84;3611293;39;20050;-67
2024/01/20 05:09:12;;;;;;;26.85;14.65;;;;;;;0.64;89.36;102526.47;3612492;39;20401;-68
2024/01/20 05:11:38;;;;;;;28.42;14.10;;;;;;;0.62;89.55;102526.44;3614574;39;20058;-68
2024/01/20 05:14:03;;;;;;;29.63;15.80;;;;;;;0.62;88.60;102521.13;3613342;39;20061;-67
2024/01/20 05:16:29;;;;;;;26.45;14.68;;;;;;;0.66;88.85;102533.50;3613134;39;20069;-68
2024/01/20 05:18:55;;;;;;;28.55;14.75;;;;;;;0.61;89.28;102524.69;3611502;39;20062;-67
2024/01/20 05:21:22;;;;;;;25.60;14.00;;;;;;;0.61;88.02;102523.78;3609974;39;20055;-67
2024/01/20 05:23:48;;;;;;;28.88;13.73;;;;;;;0.60;88.29;102532.59;3612105;39;20058;-67
2024/01/20 05:26:14;;;;;;;27.45;14.30;;;;;;;0.55;88.95;102532.56;3613837;39;20431;-68
2024/01/20 05:28:41;;;;;;;28.00;15.15;;;;;;;0.58;88.40;102537.88;3613583;39;20047;-68
2024/01/20 05:31:07;;;;;;;27.40;14.75;;;;;;;0.57;88.00;102528.19;3612860;39;20128;-68
2024/01/20 05:33:32;;;;;;;28.83;14.07;;;;;;;0.68;87.59;102537.06;3613590;39;20062;-68
2024/01/20 05:35:58;;;;;;;29.50;14.73;;;;;;;0.58;88.41;102535.25;3612502;39;20376;-68
2024/01/20 05:38:24;;;;;;;27.55;14.90;;;;;;;0.60;87.96;102536.16;3613188;39;20042;-68
2024/01/20 05:40:49;;;;;;;29.45;14.95;;;;;;;0.58;88.95;102529.06;3611530;39;20050;-67
2024/01/20 05:43:15;;;;;;;24.10;14.13;;;;;;;0.63;88.56;102537.91;3612688;39;20096;-67
2024/01/20 05:45:41;;;;;;;25.67;14.18;;;;;;;0.61;89.20;102551.13;3611824;39;20078;-68
2024/01/20 05:48:06;;;;;;;29.75;14.30;;;;;;;0.29;89.18;102482.13;3611493;39;20091;-68
2024/01/20 05:50:32;;;;;;;27.60;14.35;;;;;;;0.64;88.55;102537.94;3612470;39;20063;-68
2024/01/20 05:52:57;;;;;;;27.77;14.38;;;;;;;0.21;88.54;102473.25;3612256;39;20076;-67
2024/01/20 05:55:24;;;;;;;24.30;14.50;;;;;;;0.65;87.68;102537.03;3610273;39;20335;-68
2024/01/20 05:57:49;;;;;;;24.80;14.57;;;;;;;0.62;88.86;102544.97;3611495;39;20313;-68
2024/01/20 06:00:17;;;;;;;25.45;14.13;;;;;;;0.66;88.42;102553.81;3611502;39;20069;-68
2024/01/20 06:02:42;;;;;;;26.27;14.02;;;;;;;0.42;88.57;102517.50;3607651;39;20047;-68
2024/01/20 06:05:08;;;;;;;28.73;14.90;;;;;;;0.58;88.22;102556.41;3608639;39;20059;-68
2024/01/20 06:07:34;;;;;;;33.53;14.35;;;;;;;0.60;88.95;102553.75;3611638;39;20166;-67
2024/01/20 06:09:59;;;;;;;28.08;14.38;;;;;;;0.60;88.91;102559.03;3611560;39;20087;-67
2024/01/20 06:12:25;;;;;;;25.73;14.40;;;;;;;0.51;88.15;102543.09;3612016;39;20095;-68
2024/01/20 06:14:51;;;;;;;28.70;15.32;;;;;;;0.60;87.30;102561.69;3611449;39;20055;-67
2024/01/20 06:17:16;;;;;;;28.63;14.77;;;;;;;0.55;88.94;102566.09;3611417;39;20073;-68
2024/01/20 06:19:42;;;;;;;24.17;13.40;;;;;;;0.54;88.74;102569.59;3603544;39;20047;-67
2024/01/20 06:22:07;;;;;;;25.58;14.13;;;;;;;0.53;88.87;102574.00;3609684;39;20051;-67
2024/01/20 06:24:33;;;;;;;25.20;14.82;;;;;;;0.54;87.88;102565.19;3607928;39;20063;-67
2024/01/20 06:26:58;;;;;;;23.38;13.77;;;;;;;0.50;87.93;102560.75;3609387;39;20327;-67
2024/01/20 06:29:24;;;;;;;27.70;14.77;;;;;;;0.47;88.96;102568.66;3610978;39;20047;-68
2024/01/20 06:31:50;;;;;;;25.88;14.40;;;;;;;0.55;89.21;102577.56;3611216;39;20046;-68
2024/01/20 06:34:15;;;;;;;28.95;15.13;;;;;;;0.53;88.37;102579.28;3608907;39;20063;-67
2024/01/20 06:36:41;;;;;;;24.77;14.35;;;;;;;0.55;89.56;102577.56;3612124;39;20047;-67
2024/01/20 06:39:07;;;;;;;24.40;14.20;;;;;;;0.58;88.00;102572.28;3610716;39;20073;-68
2024/01/20 06:41:32;;;;;;;25.48;13.38;;;;;;;0.56;87.94;102579.31;3610645;39;20059;-68
2024/01/20 06:43:58;;;;;;;23.35;14.40;;;;;;;0.46;88.42;102572.19;3609811;39;20057;-68
2024/01/20 06:46:23;;;;;;;27.25;15.05;;;;;;;0.51;88.12;102581.06;3609113;39;20206;-68
2024/01/20 06:48:50;;;;;;;25.30;14.80;;;;;;;0.53;89.06;102587.22;3611579;39;20047;-68
2024/01/20 06:51:15;;;;;;;26.77;15.43;;;;;;;0.62;87.26;102592.59;3608026;39;20058;-69
2024/01/20 06:53:44;;;;;;;24.75;13.35;;;;;;;0.49;87.96;102576.63;3610404;39;20302;-69
2024/01/20 06:56:10;;;;;;;24.77;15.13;;;;;;;0.53;88.86;102600.44;3608754;39;20575;-68
2024/01/20 06:58:35;;;;;;;25.08;13.85;;;;;;;0.56;87.74;102611.06;3610865;39;20047;-69
2024/01/20 07:01:01;;;;;;;25.10;14.75;;;;;;;0.61;88.23;102593.47;3609270;39;20294;-68
2024/01/20 07:03:26;;;;;;;25.88;14.93;;;;;;;0.61;87.88;102603.19;3610764;39;20070;-69
2024/01/20 07:05:52;;;;;;;23.63;14.50;;;;;;;0.57;88.03;102607.56;3612019;39;20061;-68
2024/01/20 07:08:18;;;;;;;25.30;13.75;;;;;;;0.63;86.19;102607.59;3609923;39;20074;-69
2024/01/20 07:10:44;;;;;;;26.95;15.20;;;;;;;0.53;88.44;102616.31;3612142;39;20053;-68
2024/01/20 07:13:10;;;;;;;27.80;17.75;;;;;;;0.53;87.16;102608.38;3598776;39;20047;-68
2024/01/20 07:15:35;;;;;;;27.27;16.75;;;;;;;0.55;88.51;102611.94;3606174;39;20054;-69
2024/01/20 07:18:01;;;;;;;25.33;14.13;;;;;;;0.53;87.38;102613.69;3609397;39;20303;-69
2024/01/20 07:20:26;;;;;;;24.85;14.75;;;;;;;0.51;86.80;102602.22;3607978;39;20043;-69
2024/01/20 07:22:52;;;;;;;27.50;15.35;;;;;;;0.47;87.33;102603.03;3610042;39;20375;-69
2024/01/20 07:25:18;;;;;;;23.48;14.52;;;;;;;0.51;87.22;102604.88;3609314;39;20330;-68
2024/01/20 07:27:44;;;;;;;24.63;14.70;;;;;;;0.52;88.03;102616.31;3607624;39;20054;-69
2024/01/20 07:30:10;;;;;;;25.33;14.10;;;;;;;0.52;87.75;102611.91;3608454;39;20066;-69
2024/01/20 07:32:40;;;;;;;26.52;15.27;;;;;;;0.50;87.10;102600.44;3609076;39;20387;-69
2024/01/20 07:35:07;;;;;;;23.80;14.93;;;;;;;0.52;88.43;102619.84;3606989;39;20039;-69
2024/01/20 07:37:36;;;;;;;26.88;14.68;;;;;;;0.49;87.33;102616.31;3609546;39;20059;-69
2024/01/20 07:40:03;;;;;;;26.45;14.05;;;;;;;0.54;88.02;102618.13;3608789;39;20095;-68
2024/01/20 07:42:29;;;;;;;29.27;15.10;;;;;;;0.52;88.09;102619.84;3611148;39;20059;-69
2024/01/20 07:44:55;;;;;;;28.75;16.50;;;;;;;0.44;87.67;102616.25;3611378;39;20421;-68
2024/01/20 07:47:20;;;;;;;27.77;16.33;;;;;;;0.51;87.42;102614.53;3596391;39;20063;-69
2024/01/20 07:49:46;;;;;;;27.25;15.50;;;;;;;0.49;87.21;102618.94;3611702;39;20047;-68
2024/01/20 07:52:12;;;;;;;28.15;15.35;;;;;;;0.45;88.18;102620.69;3609671;39;20066;-69
2024/01/20 07:54:37;;;;;;;27.35;15.88;;;;;;;0.37;87.63;102622.34;3612079;39;20363;-69
2024/01/20 07:57:03;;;;;;;27.88;16.08;;;;;;;0.49;88.19;102634.81;3608389;39;20051;-69
2024/01/20 07:59:29;;;;;;;23.75;14.50;;;;;;;0.49;87.65;102634.81;3611182;39;20302;-69
2024/01/20 08:01:55;;;;;;;25.02;14.85;;;;;;;0.42;86.97;102631.25;3608812;39;20062;-69
2024/01/20 08:04:21;;;;;;;24.20;14.43;;;;;;;0.43;87.79;102625.06;3606704;39;20070;-69
2024/01/20 08:06:47;;;;;;;25.05;13.98;;;;;;;0.43;87.19;102648.88;3609904;39;20127;-69
2024/01/20 08:09:12;;;;;;;24.58;13.93;;;;;;;0.39;87.63;102636.50;3609253;39;20047;-69
2024/01/20 08:11:38;;;;;;;25.10;14.57;;;;;;;0.39;87.67;102631.22;3608776;39;21264;-69
2024/01/20 08:14:04;;;;;;;26.30;15.63;;;;;;;0.41;87.93;102633.00;3609213;39;20277;-69
2024/01/20 08:16:29;;;;;;;29.77;16.35;;;;;;;0.39;88.71;102634.72;3607617;39;20051;-68
2024/01/20 08:18:55;;;;;;;26.10;15.43;;;;;;;0.43;88.12;102635.66;3609106;39;20062;-69
2024/01/20 08:21:21;;;;;;;24.90;14.52;;;;;;;0.39;87.64;102629.44;3609407;39;20074;-68
2024/01/20 08:23:47;;;;;;;26.85;16.50;;;;;;;0.45;88.01;102644.50;3599784;39;20065;-69
2024/01/20 08:26:14;;;;;;;26.88;15.35;;;;;;;0.43;88.11;102641.81;3608506;39;20063;-69
2024/01/20 08:28:39;;;;;;;27.40;15.50;;;;;;;0.46;88.88;102646.25;3608014;39;20309;-69
2024/01/20 08:31:05;;;;;;;29.42;15.82;;;;;;;0.49;89.55;102643.63;3608964;39;20291;-68
2024/01/20 08:33:31;;;;;;;24.20;14.73;;;;;;;0.60;87.24;102652.56;3609369;39;20058;-68
2024/01/20 08:35:57;;;;;;;28.35;16.80;;;;;;;0.51;87.29;102649.84;3612526;39;20375;-69
2024/01/20 08:38:22;;;;;;;28.20;16.60;;;;;;;0.59;87.14;102657.84;3608655;39;20097;-69
2024/01/20 08:40:48;;;;;;;28.55;15.77;;;;;;;0.54;88.86;102655.16;3611778;39;20054;-68
2024/01/20 08:43:15;;;;;;;25.90;15.00;;;;;;;0.55;88.17;102656.03;3607657;39;20699;-69
2024/01/20 08:45:41;;;;;;;26.38;15.40;;;;;;;0.40;87.49;102635.63;3608360;39;20105;-69
2024/01/20 08:48:07;;;;;;;27.67;15.82;;;;;;;0.57;88.55;102664.88;3608962;39;20058;-69
2024/01/20 08:50:33;;;;;;;23.67;14.98;;;;;;;0.60;87.47;102655.22;3608156;39;20059;-69
2024/01/20 08:52:58;;;;;;;25.25;14.90;;;;;;;0.60;88.25;102656.94;3609999;39;20047;-69
2024/01/20 08:55:24;;;;;;;26.67;15.75;;;;;;;0.49;87.44;102643.63;3609721;39;20052;-69
2024/01/20 08:57:50;;;;;;;23.73;14.05;;;;;;;0.74;87.98;102662.38;3608969;39;20063;-68
2024/01/20 09:00:16;;;;;;;26.80;15.13;;;;;;;0.70;88.54;102666.78;3607209;39;20054;-69
2024/01/20 09:02:43;;;;;;;23.95;15.13;;;;;;;0.74;88.20;102663.28;3606498;39;20055;-68
2024/01/20 09:05:09;;;;;;;25.80;15.10;;;;;;;0.79;88.43;102656.22;3608636;39;20792;-68
2024/01/20 09:07:35;;;;;;;24.85;15.48;;;;;;;0.81;86.51;102666.84;3609054;39;20062;-69
2024/01/20 09:10:03;;;;;;;22.92;14.20;;;;;;;0.83;86.32;102673.06;3610000;39;20298;-69
2024/01/20 09:12:29;;;;;;;25.90;16.00;;;;;;;0.80;86.75;102675.69;3610084;39;20051;-68
2024/01/20 09:14:55;;;;;;;26.95;15.30;;;;;;;0.77;87.42;102680.94;3609377;39;20413;-68
2024/01/20 09:17:20;;;;;;;24.13;15.25;;;;;;;0.79;86.19;102676.53;3609699;39;20070;-68
2024/01/20 09:19:46;;;;;;;24.42;14.70;;;;;;;0.80;86.13;102676.56;3611224;39;20066;-68
2024/01/20 09:22:12;;;;;;;24.85;15.15;;;;;;;0.81;86.72;102674.78;3610092;39;20061;-68
2024/01/20 09:24:37;;;;;;;27.50;15.23;;;;;;;0.79;86.33;102682.69;3609256;39;20396;-68
2024/01/20 09:27:05;;;;;;;25.88;15.60;;;;;;;0.78;87.53;102680.06;3609310;39;20387;-69
2024/01/20 09:29:30;;;;;;;28.80;16.25;;;;;;;0.81;87.18;102685.38;3612250;39;20099;-68
2024/01/20 09:31:56;;;;;;;22.13;14.25;;;;;;;0.87;86.22;102685.44;3611593;39;20314;-68
2024/01/20 09:34:22;;;;;;;27.02;15.23;;;;;;;0.80;86.93;102688.91;3609435;39;20057;-68
2024/01/20 09:36:49;;;;;;;24.45;14.88;;;;;;;0.76;85.34;102674.75;3611863;39;20303;-69
2024/01/20 09:39:15;;;;;;;23.75;14.63;;;;;;;0.80;86.28;102679.19;3611003;39;20062;-69
2024/01/20 09:41:43;;;;;;;25.58;15.57;;;;;;;0.77;85.21;102679.19;3610244;39;20048;-69
2024/01/20 09:44:12;;;;;;;25.55;15.52;;;;;;;0.69;86.01;102687.03;3609687;39;20311;-68
2024/01/20 09:46:38;;;;;;;27.45;16.88;;;;;;;0.75;87.45;102690.63;3608258;39;20051;-69
2024/01/20 09:49:04;;;;;;;27.00;15.50;;;;;;;0.78;86.68;102694.16;3610237;39;20301;-69
2024/01/20 09:51:31;;;;;;;26.13;15.15;;;;;;;0.75;86.52;102702.09;3599960;39;20055;-69
2024/01/20 09:54:00;;;;;;;24.88;14.68;;;;;;;0.73;85.83;102708.22;3612423;39;20057;-68
2024/01/20 09:56:27;;;;;;;23.25;13.95;;;;;;;0.73;86.47;102708.22;3610923;39;20419;-68
2024/01/20 09:58:59;;;;;;;24.52;15.18;;;;;;;0.71;86.72;102704.72;3612483;39;20046;-68
2024/01/20 10:01:27;;;;;;;26.33;15.05;;;;;;;0.75;87.18;102703.84;3610404;39;20118;-68
2024/01/20 10:04:00;;;;;;;23.35;14.30;;;;;;;0.77;86.62;102704.75;3610467;39;20062;-68
2024/01/20 10:06:26;;;;;;;24.75;14.45;;;;;;;0.77;86.08;102710.94;3608400;39;20059;-68
2024/01/20 10:08:52;;;;;;;24.15;13.90;;;;;;;0.84;85.56;102707.47;3609465;39;20337;-68
2024/01/20 10:11:18;;;;;;;23.70;14.23;;;;;;;0.87;86.55;102702.19;3607572;39;20054;-68
2024/01/20 10:13:43;;;;;;;24.50;14.57;;;;;;;0.91;86.34;102711.94;3611846;39;20058;-69
2024/01/20 10:16:09;;;;;;;21.23;13.88;;;;;;;0.93;86.52;102704.91;3609399;39;20050;-68
2024/01/20 10:18:35;;;;;;;21.42;13.43;;;;;;;0.91;85.26;102703.97;3608894;39;20542;-68
2024/01/20 10:21:05;;;;;;;21.33;13.40;;;;;;;0.99;85.67;102705.84;3611969;39;20053;-69
2024/01/20 10:23:36;;;;;;;22.90;13.77;;;;;;;1.03;86.42;102719.09;3609876;39;20093;-70
2024/01/20 10:26:05;;;;;;;22.95;14.07;;;;;;;1.11;84.86;102712.13;3612997;39;20059;-71
2024/01/20 10:28:33;;;;;;;20.05;12.40;;;;;;;1.17;84.32;102716.53;3609005;39;20062;-68
2024/01/20 10:31:07;;;;;;;22.95;14.40;;;;;;;1.12;84.90;102711.22;3610254;39;20063;-68
2024/01/20 10:33:32;;;;;;;25.02;12.93;;;;;;;1.19;85.26;102708.63;3608801;39;20055;-69
2024/01/20 10:36:01;;;;;;;22.75;13.40;;;;;;;1.28;85.41;102688.38;3609945;39;20047;-71
2024/01/20 10:38:29;;;;;;;23.38;13.50;;;;;;;1.14;83.84;102656.53;3607988;39;20058;-69
2024/01/20 10:40:58;;;;;;;21.70;12.30;;;;;;;1.37;83.01;102682.28;3599994;39;20055;-69
2024/01/20 10:43:30;;;;;;;20.48;12.15;;;;;;;1.43;82.86;102687.59;3608083;39;20059;-70
2024/01/20 10:46:08;;;;;;;25.13;14.15;;;;;;;1.48;83.69;102680.53;3608699;39;20361;-69
2024/01/20 10:48:41;;;;;;;28.17;15.45;;;;;;;1.39;82.73;102675.19;3608913;39;20055;-69
2024/01/20 10:51:18;;;;;;;23.40;14.63;;;;;;;1.46;83.03;102698.22;3608821;39;20043;-69
2024/01/20 10:53:48;;;;;;;24.23;14.77;;;;;;;1.45;82.25;102685.81;3612570;39;20059;-70
2024/01/20 10:56:16;;;;;;;25.98;14.45;;;;;;;1.37;82.27;102698.16;3612171;39;20090;-69
2024/01/20 10:59:09;;;;;;;26.48;15.43;;;;;;;1.36;83.30;102691.97;3611522;39;20060;-70
2024/01/20 11:01:41;;;;;;;24.55;13.48;;;;;;;1.33;83.83;102699.91;3608770;39;20043;-71
2024/01/20 11:04:08;;;;;;;23.65;14.02;;;;;;;1.33;83.51;102694.63;3609721;39;20082;-71
2024/01/20 11:06:36;;;;;;;24.83;14.10;;;;;;;1.35;83.69;102699.91;3610959;39;20067;-70
2024/01/20 11:09:02;;;;;;;26.75;14.82;;;;;;;1.36;83.19;102680.47;3601156;39;20139;-70
2024/01/20 11:11:29;;;;;;;24.35;14.48;;;;;;;1.47;82.98;102699.09;3611446;39;20103;-70
2024/01/20 11:14:01;;;;;;;25.15;14.73;;;;;;;1.51;83.34;102695.59;3612257;39;20079;-70